MMPB/PBC METAR and TAF weather

Enter ICAO airport designator
Station Type Date Time Source
MMPB METAR 2022/08/16 18:52 UTC NOAA

MMPB 161852Z 14008KT 9SM SCT020 BKN090 22/12 A3029 RMK 8/130 HZY


Station Type Date Time Source
MMPB Decoded METAR 2022/08/16 18:52 UTC NOAA

Puebla, Pue., Mexico (MMPB) 19-03N 098-10W
Aug 16, 2022 - 02:52 PM EDT / 2022.08.16 1852 UTC
Wind: from the SE (140 degrees) at 9 MPH (8 KT):0
Visibility: 9 mile(s):0
Sky conditions: mostly cloudy
Temperature: 71 F (22 C)
Dew Point: 53 F (12 C)
Relative Humidity: 53%
Pressure (altimeter): 30.29 in. Hg (1025 hPa)
ob: MMPB 161852Z 14008KT 9SM SCT020 BKN090 22/12 A3029 RMK 8/130 HZY
cycle: 19

Station Type Date Time Source
MMPB TAF 2022/08/16 18:44 UTC NOAA

TAF MMPB 161637Z 1618/1718 20008KT P6SM BKN020 BKN090 BKN220
BECMG 1621/1622 P6SM VC RA
TEMPO 1622/1702 4SM TSRA
FM170300 04004KT P6SM SCT025 BKN090 BKN220
TEMPO 1710/1714 3SM BR BKN010
FM171500 10006KT 6SM HZ SCT080 SCT220

Example: see airport list